sensor_id;sensor_type;location;lat;lon;timestamp;temperature;humidity
60723;DHT22;46574;52.818;6.516;2023-02-01T00:02:23;6.90;99.90
60723;DHT22;46574;52.818;6.516;2023-02-01T00:04:49;6.90;99.90
60723;DHT22;46574;52.818;6.516;2023-02-01T00:07:14;6.90;99.90
60723;DHT22;46574;52.818;6.516;2023-02-01T00:09:40;6.80;99.90
60723;DHT22;46574;52.818;6.516;2023-02-01T00:12:06;6.80;99.90
60723;DHT22;46574;52.818;6.516;2023-02-01T00:14:31;6.80;99.90
60723;DHT22;46574;52.818;6.516;2023-02-01T00:17:04;6.80;99.90
60723;DHT22;46574;52.818;6.516;2023-02-01T00:19:30;6.90;99.90
60723;DHT22;46574;52.818;6.516;2023-02-01T00:21:55;6.90;99.90
60723;DHT22;46574;52.818;6.516;2023-02-01T00:24:21;6.80;99.90
60723;DHT22;46574;52.818;6.516;2023-02-01T00:26:48;6.80;99.90
60723;DHT22;46574;52.818;6.516;2023-02-01T00:29:16;6.80;99.90
60723;DHT22;46574;52.818;6.516;2023-02-01T00:31:42;6.80;99.90
60723;DHT22;46574;52.818;6.516;2023-02-01T00:34:14;6.70;99.90
60723;DHT22;46574;52.818;6.516;2023-02-01T00:36:41;6.80;99.90
60723;DHT22;46574;52.818;6.516;2023-02-01T00:39:07;6.70;99.90
60723;DHT22;46574;52.818;6.516;2023-02-01T00:41:33;6.80;99.90
60723;DHT22;46574;52.818;6.516;2023-02-01T00:43:58;6.80;99.90
60723;DHT22;46574;52.818;6.516;2023-02-01T00:46:24;6.70;99.90
60723;DHT22;46574;52.818;6.516;2023-02-01T00:48:51;6.70;99.90
60723;DHT22;46574;52.818;6.516;2023-02-01T00:51:22;6.60;99.90
60723;DHT22;46574;52.818;6.516;2023-02-01T00:53:49;6.70;99.90
60723;DHT22;46574;52.818;6.516;2023-02-01T00:56:15;6.70;99.90
60723;DHT22;46574;52.818;6.516;2023-02-01T00:58:41;6.70;99.90
60723;DHT22;46574;52.818;6.516;2023-02-01T01:01:22;6.70;99.90
60723;DHT22;46574;52.818;6.516;2023-02-01T01:03:54;6.70;99.90
60723;DHT22;46574;52.818;6.516;2023-02-01T01:06:26;6.70;99.90
60723;DHT22;46574;52.818;6.516;2023-02-01T01:08:53;6.70;99.90
60723;DHT22;46574;52.818;6.516;2023-02-01T01:11:21;6.70;99.90
60723;DHT22;46574;52.818;6.516;2023-02-01T01:13:49;6.70;99.90
60723;DHT22;46574;52.818;6.516;2023-02-01T01:16:16;6.70;99.90
60723;DHT22;46574;52.818;6.516;2023-02-01T01:18:42;6.70;99.90
60723;DHT22;46574;52.818;6.516;2023-02-01T01:21:09;6.70;99.90
60723;DHT22;46574;52.818;6.516;2023-02-01T01:23:35;6.80;99.90
60723;DHT22;46574;52.818;6.516;2023-02-01T01:26:23;6.80;99.90
60723;DHT22;46574;52.818;6.516;2023-02-01T01:28:50;6.80;99.90
60723;DHT22;46574;52.818;6.516;2023-02-01T01:31:18;6.80;99.90
60723;DHT22;46574;52.818;6.516;2023-02-01T01:33:47;6.80;99.90
60723;DHT22;46574;52.818;6.516;2023-02-01T01:36:13;6.80;99.90
60723;DHT22;46574;52.818;6.516;2023-02-01T01:38:39;6.80;99.90
60723;DHT22;46574;52.818;6.516;2023-02-01T01:41:06;6.80;99.90
60723;DHT22;46574;52.818;6.516;2023-02-01T01:44:05;6.80;99.90
60723;DHT22;46574;52.818;6.516;2023-02-01T01:46:32;6.80;99.90
60723;DHT22;46574;52.818;6.516;2023-02-01T01:51:28;6.80;99.90
60723;DHT22;46574;52.818;6.516;2023-02-01T01:54:43;6.80;99.90
60723;DHT22;46574;52.818;6.516;2023-02-01T01:56:52;6.80;99.90
60723;DHT22;46574;52.818;6.516;2023-02-01T01:59:21;6.90;99.90
60723;DHT22;46574;52.818;6.516;2023-02-01T02:01:47;6.90;99.90
60723;DHT22;46574;52.818;6.516;2023-02-01T02:04:13;6.90;99.90
60723;DHT22;46574;52.818;6.516;2023-02-01T02:09:14;6.90;99.90
60723;DHT22;46574;52.818;6.516;2023-02-01T02:11:40;6.80;99.90
60723;DHT22;46574;52.818;6.516;2023-02-01T02:14:08;6.80;99.90
60723;DHT22;46574;52.818;6.516;2023-02-01T02:17:12;6.70;99.90
60723;DHT22;46574;52.818;6.516;2023-02-01T02:42:07;6.40;99.90
60723;DHT22;46574;52.818;6.516;2023-02-01T02:45:17;6.40;99.90
60723;DHT22;46574;52.818;6.516;2023-02-01T02:53:47;6.30;99.90
60723;DHT22;46574;52.818;6.516;2023-02-01T02:56:33;6.30;99.90
60723;DHT22;46574;52.818;6.516;2023-02-01T02:59:21;6.20;99.90
60723;DHT22;46574;52.818;6.516;2023-02-01T03:02:07;6.20;99.90
60723;DHT22;46574;52.818;6.516;2023-02-01T03:04:55;6.20;99.90
60723;DHT22;46574;52.818;6.516;2023-02-01T03:10:17;6.20;99.90
60723;DHT22;46574;52.818;6.516;2023-02-01T03:12:47;6.20;99.90
60723;DHT22;46574;52.818;6.516;2023-02-01T03:15:32;6.20;99.90
60723;DHT22;46574;52.818;6.516;2023-02-01T03:18:01;6.20;99.90
60723;DHT22;46574;52.818;6.516;2023-02-01T03:20:28;6.20;99.90
60723;DHT22;46574;52.818;6.516;2023-02-01T03:22:55;6.20;99.90
60723;DHT22;46574;52.818;6.516;2023-02-01T03:25:27;6.30;99.90
60723;DHT22;46574;52.818;6.516;2023-02-01T03:28:03;6.30;99.90
60723;DHT22;46574;52.818;6.516;2023-02-01T03:33:07;6.30;99.90
60723;DHT22;46574;52.818;6.516;2023-02-01T03:39:03;6.30;99.90
60723;DHT22;46574;52.818;6.516;2023-02-01T03:41:43;6.30;99.90
60723;DHT22;46574;52.818;6.516;2023-02-01T03:46:58;6.40;99.90
60723;DHT22;46574;52.818;6.516;2023-02-01T03:49:33;6.40;99.90
60723;DHT22;46574;52.818;6.516;2023-02-01T03:52:00;6.40;99.90
60723;DHT22;46574;52.818;6.516;2023-02-01T03:54:27;6.40;99.90
60723;DHT22;46574;52.818;6.516;2023-02-01T03:56:56;6.40;99.90
60723;DHT22;46574;52.818;6.516;2023-02-01T03:59:23;6.40;99.90
60723;DHT22;46574;52.818;6.516;2023-02-01T04:01:49;6.50;99.90
60723;DHT22;46574;52.818;6.516;2023-02-01T04:04:15;6.40;99.90
60723;DHT22;46574;52.818;6.516;2023-02-01T04:06:49;6.50;99.90
60723;DHT22;46574;52.818;6.516;2023-02-01T04:09:15;6.50;99.90
60723;DHT22;46574;52.818;6.516;2023-02-01T04:11:40;6.50;99.90
60723;DHT22;46574;52.818;6.516;2023-02-01T04:14:06;6.50;99.90
60723;DHT22;46574;52.818;6.516;2023-02-01T04:16:32;6.40;99.90
60723;DHT22;46574;52.818;6.516;2023-02-01T04:18:58;6.40;99.90
60723;DHT22;46574;52.818;6.516;2023-02-01T04:21:27;6.40;99.90
60723;DHT22;46574;52.818;6.516;2023-02-01T04:23:54;6.40;99.90
60723;DHT22;46574;52.818;6.516;2023-02-01T04:26:20;6.40;99.90
60723;DHT22;46574;52.818;6.516;2023-02-01T04:28:47;6.40;99.90
60723;DHT22;46574;52.818;6.516;2023-02-01T04:31:17;6.50;99.90
60723;DHT22;46574;52.818;6.516;2023-02-01T04:33:43;6.50;99.90
60723;DHT22;46574;52.818;6.516;2023-02-01T04:36:09;6.50;99.90
60723;DHT22;46574;52.818;6.516;2023-02-01T04:38:35;6.50;99.90
60723;DHT22;46574;52.818;6.516;2023-02-01T04:41:01;6.60;99.90
60723;DHT22;46574;52.818;6.516;2023-02-01T04:43:27;6.50;99.90
60723;DHT22;46574;52.818;6.516;2023-02-01T04:45:52;6.60;99.90
60723;DHT22;46574;52.818;6.516;2023-02-01T04:48:20;6.60;99.90
60723;DHT22;46574;52.818;6.516;2023-02-01T04:50:46;6.60;99.90
60723;DHT22;46574;52.818;6.516;2023-02-01T04:53:14;6.60;99.90
60723;DHT22;46574;52.818;6.516;2023-02-01T04:55:40;6.60;99.90
60723;DHT22;46574;52.818;6.516;2023-02-01T04:58:06;6.70;99.90
60723;DHT22;46574;52.818;6.516;2023-02-01T05:00:32;6.70;99.90
60723;DHT22;46574;52.818;6.516;2023-02-01T05:02:57;6.70;99.90
60723;DHT22;46574;52.818;6.516;2023-02-01T05:05:23;6.70;99.90
60723;DHT22;46574;52.818;6.516;2023-02-01T05:07:49;6.70;99.90
60723;DHT22;46574;52.818;6.516;2023-02-01T05:10:15;6.70;99.90
60723;DHT22;46574;52.818;6.516;2023-02-01T05:12:43;6.60;99.90
60723;DHT22;46574;52.818;6.516;2023-02-01T05:15:27;6.60;99.90
60723;DHT22;46574;52.818;6.516;2023-02-01T05:17:53;6.60;99.90
60723;DHT22;46574;52.818;6.516;2023-02-01T05:20:19;6.60;99.90
60723;DHT22;46574;52.818;6.516;2023-02-01T05:22:44;6.60;99.90
60723;DHT22;46574;52.818;6.516;2023-02-01T05:25:10;6.60;99.90
60723;DHT22;46574;52.818;6.516;2023-02-01T05:27:36;6.60;99.90
60723;DHT22;46574;52.818;6.516;2023-02-01T05:30:03;6.70;99.90
60723;DHT22;46574;52.818;6.516;2023-02-01T05:32:29;6.80;99.90
60723;DHT22;46574;52.818;6.516;2023-02-01T05:34:55;6.80;99.90
60723;DHT22;46574;52.818;6.516;2023-02-01T05:37:20;6.80;99.90
60723;DHT22;46574;52.818;6.516;2023-02-01T05:39:46;6.80;99.90
60723;DHT22;46574;52.818;6.516;2023-02-01T05:42:11;6.80;99.90
60723;DHT22;46574;52.818;6.516;2023-02-01T05:44:37;6.80;99.90
60723;DHT22;46574;52.818;6.516;2023-02-01T05:47:03;6.80;99.90
60723;DHT22;46574;52.818;6.516;2023-02-01T05:49:28;6.90;99.90
60723;DHT22;46574;52.818;6.516;2023-02-01T05:51:54;6.90;99.90
60723;DHT22;46574;52.818;6.516;2023-02-01T05:54:20;6.90;99.90
60723;DHT22;46574;52.818;6.516;2023-02-01T05:56:45;6.90;99.90
60723;DHT22;46574;52.818;6.516;2023-02-01T05:59:11;7.00;99.90
60723;DHT22;46574;52.818;6.516;2023-02-01T06:01:36;7.00;99.90
60723;DHT22;46574;52.818;6.516;2023-02-01T06:04:02;7.00;99.90
60723;DHT22;46574;52.818;6.516;2023-02-01T06:06:28;7.00;99.90
60723;DHT22;46574;52.818;6.516;2023-02-01T06:08:53;7.00;99.90
60723;DHT22;46574;52.818;6.516;2023-02-01T06:11:19;7.00;99.90
60723;DHT22;46574;52.818;6.516;2023-02-01T06:13:45;7.00;99.90
60723;DHT22;46574;52.818;6.516;2023-02-01T06:16:10;7.00;99.90
60723;DHT22;46574;52.818;6.516;2023-02-01T06:18:36;7.00;99.90
60723;DHT22;46574;52.818;6.516;2023-02-01T06:21:03;7.00;99.90
60723;DHT22;46574;52.818;6.516;2023-02-01T06:23:30;7.00;99.90
60723;DHT22;46574;52.818;6.516;2023-02-01T06:26:01;7.00;99.90
60723;DHT22;46574;52.818;6.516;2023-02-01T06:28:28;7.00;99.90
60723;DHT22;46574;52.818;6.516;2023-02-01T06:30:54;7.00;99.90
60723;DHT22;46574;52.818;6.516;2023-02-01T06:33:19;7.00;99.90
60723;DHT22;46574;52.818;6.516;2023-02-01T06:35:45;7.10;99.90
60723;DHT22;46574;52.818;6.516;2023-02-01T06:38:12;7.10;99.90
60723;DHT22;46574;52.818;6.516;2023-02-01T06:40:38;7.10;99.90
60723;DHT22;46574;52.818;6.516;2023-02-01T06:43:04;7.10;99.90
60723;DHT22;46574;52.818;6.516;2023-02-01T06:45:30;7.00;99.90
60723;DHT22;46574;52.818;6.516;2023-02-01T06:47:55;7.10;99.90
60723;DHT22;46574;52.818;6.516;2023-02-01T06:50:21;7.10;99.90
60723;DHT22;46574;52.818;6.516;2023-02-01T06:52:47;7.10;99.90
60723;DHT22;46574;52.818;6.516;2023-02-01T06:55:13;7.10;99.90
60723;DHT22;46574;52.818;6.516;2023-02-01T06:57:39;7.10;99.90
60723;DHT22;46574;52.818;6.516;2023-02-01T07:00:05;7.10;99.90
60723;DHT22;46574;52.818;6.516;2023-02-01T07:02:31;7.10;99.90
60723;DHT22;46574;52.818;6.516;2023-02-01T07:04:57;7.10;99.90
60723;DHT22;46574;52.818;6.516;2023-02-01T07:07:22;7.10;99.90
60723;DHT22;46574;52.818;6.516;2023-02-01T07:09:49;7.10;99.90
60723;DHT22;46574;52.818;6.516;2023-02-01T07:12:15;7.10;99.90
60723;DHT22;46574;52.818;6.516;2023-02-01T07:14:41;7.10;99.90
60723;DHT22;46574;52.818;6.516;2023-02-01T07:17:06;7.20;99.90
60723;DHT22;46574;52.818;6.516;2023-02-01T07:19:32;7.20;99.90
60723;DHT22;46574;52.818;6.516;2023-02-01T07:21:58;7.10;99.90
60723;DHT22;46574;52.818;6.516;2023-02-01T07:24:24;7.10;99.90
60723;DHT22;46574;52.818;6.516;2023-02-01T07:26:49;7.10;99.90
60723;DHT22;46574;52.818;6.516;2023-02-01T07:29:17;7.10;99.90
60723;DHT22;46574;52.818;6.516;2023-02-01T07:31:43;7.10;99.90
60723;DHT22;46574;52.818;6.516;2023-02-01T07:34:09;7.20;99.90
60723;DHT22;46574;52.818;6.516;2023-02-01T07:36:34;7.20;99.90
60723;DHT22;46574;52.818;6.516;2023-02-01T07:39:04;7.20;99.90
60723;DHT22;46574;52.818;6.516;2023-02-01T07:41:30;7.10;99.90
60723;DHT22;46574;52.818;6.516;2023-02-01T07:43:56;7.10;99.90
60723;DHT22;46574;52.818;6.516;2023-02-01T07:46:22;7.20;99.90
60723;DHT22;46574;52.818;6.516;2023-02-01T07:48:48;7.20;99.90
60723;DHT22;46574;52.818;6.516;2023-02-01T07:51:15;7.20;99.90
60723;DHT22;46574;52.818;6.516;2023-02-01T07:53:42;7.10;99.90
60723;DHT22;46574;52.818;6.516;2023-02-01T07:56:13;7.10;99.90
60723;DHT22;46574;52.818;6.516;2023-02-01T07:58:39;7.10;99.90
60723;DHT22;46574;52.818;6.516;2023-02-01T08:01:05;7.00;99.90
60723;DHT22;46574;52.818;6.516;2023-02-01T08:03:59;7.00;99.90
60723;DHT22;46574;52.818;6.516;2023-02-01T08:06:25;7.00;99.90
60723;DHT22;46574;52.818;6.516;2023-02-01T08:08:52;6.90;99.90
60723;DHT22;46574;52.818;6.516;2023-02-01T08:11:19;6.90;99.90
60723;DHT22;46574;52.818;6.516;2023-02-01T08:13:45;6.90;99.90
60723;DHT22;46574;52.818;6.516;2023-02-01T08:16:12;6.80;99.90
60723;DHT22;46574;52.818;6.516;2023-02-01T08:18:38;6.80;99.90
60723;DHT22;46574;52.818;6.516;2023-02-01T08:21:11;6.80;99.90
60723;DHT22;46574;52.818;6.516;2023-02-01T08:23:39;6.80;99.90
60723;DHT22;46574;52.818;6.516;2023-02-01T08:28:32;6.90;99.90
60723;DHT22;46574;52.818;6.516;2023-02-01T08:30:58;6.90;99.90
60723;DHT22;46574;52.818;6.516;2023-02-01T08:33:24;6.90;99.90
60723;DHT22;46574;52.818;6.516;2023-02-01T08:35:49;6.90;99.90
60723;DHT22;46574;52.818;6.516;2023-02-01T08:38:15;6.90;99.90
60723;DHT22;46574;52.818;6.516;2023-02-01T08:40:41;6.90;99.90
60723;DHT22;46574;52.818;6.516;2023-02-01T08:43:07;6.90;99.90
60723;DHT22;46574;52.818;6.516;2023-02-01T08:45:33;7.00;99.90
60723;DHT22;46574;52.818;6.516;2023-02-01T08:47:59;7.00;99.90
60723;DHT22;46574;52.818;6.516;2023-02-01T08:50:25;7.00;99.90
60723;DHT22;46574;52.818;6.516;2023-02-01T08:52:51;7.00;99.90
60723;DHT22;46574;52.818;6.516;2023-02-01T08:55:17;7.00;99.90
60723;DHT22;46574;52.818;6.516;2023-02-01T08:57:43;7.00;99.90
60723;DHT22;46574;52.818;6.516;2023-02-01T09:00:12;7.10;99.90
60723;DHT22;46574;52.818;6.516;2023-02-01T09:02:39;7.10;99.90
60723;DHT22;46574;52.818;6.516;2023-02-01T09:05:05;7.10;99.90
60723;DHT22;46574;52.818;6.516;2023-02-01T09:07:32;7.10;99.90
60723;DHT22;46574;52.818;6.516;2023-02-01T09:09:58;7.10;99.90
60723;DHT22;46574;52.818;6.516;2023-02-01T09:12:30;7.20;99.90
60723;DHT22;46574;52.818;6.516;2023-02-01T09:14:57;7.20;99.90
60723;DHT22;46574;52.818;6.516;2023-02-01T09:17:28;7.20;99.90
60723;DHT22;46574;52.818;6.516;2023-02-01T09:19:54;7.20;99.90
60723;DHT22;46574;52.818;6.516;2023-02-01T09:22:20;7.20;99.90
60723;DHT22;46574;52.818;6.516;2023-02-01T09:24:46;7.20;99.90
60723;DHT22;46574;52.818;6.516;2023-02-01T09:27:11;7.20;99.90
60723;DHT22;46574;52.818;6.516;2023-02-01T09:29:37;7.20;99.90
60723;DHT22;46574;52.818;6.516;2023-02-01T09:32:03;7.20;99.90
60723;DHT22;46574;52.818;6.516;2023-02-01T09:34:31;7.20;99.90
60723;DHT22;46574;52.818;6.516;2023-02-01T09:36:56;7.20;99.90
60723;DHT22;46574;52.818;6.516;2023-02-01T09:39:22;7.20;99.90
60723;DHT22;46574;52.818;6.516;2023-02-01T09:42:33;7.20;99.90
60723;DHT22;46574;52.818;6.516;2023-02-01T09:47:29;7.20;99.90
60723;DHT22;46574;52.818;6.516;2023-02-01T09:50:14;7.20;99.90
60723;DHT22;46574;52.818;6.516;2023-02-01T09:53:02;7.20;99.90
60723;DHT22;46574;52.818;6.516;2023-02-01T09:55:39;7.20;99.90
60723;DHT22;46574;52.818;6.516;2023-02-01T09:58:40;7.20;99.90
60723;DHT22;46574;52.818;6.516;2023-02-01T10:01:23;7.10;99.90
60723;DHT22;46574;52.818;6.516;2023-02-01T10:03:59;7.00;99.90
60723;DHT22;46574;52.818;6.516;2023-02-01T10:25:55;6.70;99.90
60723;DHT22;46574;52.818;6.516;2023-02-01T10:28:22;6.60;99.90
60723;DHT22;46574;52.818;6.516;2023-02-01T10:30:49;6.70;99.90
60723;DHT22;46574;52.818;6.516;2023-02-01T10:33:47;6.70;99.90
60723;DHT22;46574;52.818;6.516;2023-02-01T10:36:32;6.70;99.90
60723;DHT22;46574;52.818;6.516;2023-02-01T10:39:02;6.70;99.90
60723;DHT22;46574;52.818;6.516;2023-02-01T10:41:35;6.70;99.90
60723;DHT22;46574;52.818;6.516;2023-02-01T10:44:12;6.70;99.90
60723;DHT22;46574;52.818;6.516;2023-02-01T10:46:38;6.70;99.90
60723;DHT22;46574;52.818;6.516;2023-02-01T10:49:08;6.60;99.90
60723;DHT22;46574;52.818;6.516;2023-02-01T10:51:39;6.60;99.90
60723;DHT22;46574;52.818;6.516;2023-02-01T10:54:21;6.60;99.90
60723;DHT22;46574;52.818;6.516;2023-02-01T10:56:48;6.60;99.90
60723;DHT22;46574;52.818;6.516;2023-02-01T10:59:20;6.60;99.90
60723;DHT22;46574;52.818;6.516;2023-02-01T11:01:49;6.60;99.90
60723;DHT22;46574;52.818;6.516;2023-02-01T11:04:17;6.60;99.90
60723;DHT22;46574;52.818;6.516;2023-02-01T11:06:53;6.70;99.90
60723;DHT22;46574;52.818;6.516;2023-02-01T11:09:22;6.70;99.90
60723;DHT22;46574;52.818;6.516;2023-02-01T11:16:53;6.70;99.90
60723;DHT22;46574;52.818;6.516;2023-02-01T11:19:19;6.70;99.90
60723;DHT22;46574;52.818;6.516;2023-02-01T11:21:53;6.80;99.90
60723;DHT22;46574;52.818;6.516;2023-02-01T11:24:27;6.80;99.90
60723;DHT22;46574;52.818;6.516;2023-02-01T11:26:57;6.90;99.90
60723;DHT22;46574;52.818;6.516;2023-02-01T11:29:25;6.90;99.90
60723;DHT22;46574;52.818;6.516;2023-02-01T11:31:59;6.90;99.90
60723;DHT22;46574;52.818;6.516;2023-02-01T11:34:46;7.00;99.90
60723;DHT22;46574;52.818;6.516;2023-02-01T11:37:20;7.00;99.90
60723;DHT22;46574;52.818;6.516;2023-02-01T11:42:54;7.00;99.90
60723;DHT22;46574;52.818;6.516;2023-02-01T11:45:24;7.00;99.90
60723;DHT22;46574;52.818;6.516;2023-02-01T11:47:54;7.00;99.90
60723;DHT22;46574;52.818;6.516;2023-02-01T11:53:31;7.00;99.90
60723;DHT22;46574;52.818;6.516;2023-02-01T11:56:05;7.00;99.90
60723;DHT22;46574;52.818;6.516;2023-02-01T11:59:04;6.90;99.90
60723;DHT22;46574;52.818;6.516;2023-02-01T12:04:36;6.90;99.90
60723;DHT22;46574;52.818;6.516;2023-02-01T12:07:14;6.80;99.90
60723;DHT22;46574;52.818;6.516;2023-02-01T12:10:03;6.70;99.90
60723;DHT22;46574;52.818;6.516;2023-02-01T12:15:26;6.70;99.90
60723;DHT22;46574;52.818;6.516;2023-02-01T12:21:06;6.80;99.90
60723;DHT22;46574;52.818;6.516;2023-02-01T12:35:23;7.00;99.90
60723;DHT22;46574;52.818;6.516;2023-02-01T12:38:06;7.20;99.90
60723;DHT22;46574;52.818;6.516;2023-02-01T12:43:20;7.20;99.90
60723;DHT22;46574;52.818;6.516;2023-02-01T12:45:58;7.30;99.90
60723;DHT22;46574;52.818;6.516;2023-02-01T12:48:29;7.30;99.90
60723;DHT22;46574;52.818;6.516;2023-02-01T12:51:01;7.40;99.90
60723;DHT22;46574;52.818;6.516;2023-02-01T12:53:30;7.50;99.90
60723;DHT22;46574;52.818;6.516;2023-02-01T12:56:02;7.50;99.90
60723;DHT22;46574;52.818;6.516;2023-02-01T12:58:48;7.50;99.90
60723;DHT22;46574;52.818;6.516;2023-02-01T13:01:20;7.60;99.90
60723;DHT22;46574;52.818;6.516;2023-02-01T13:09:45;7.70;99.90
60723;DHT22;46574;52.818;6.516;2023-02-01T13:12:36;7.70;99.90
60723;DHT22;46574;52.818;6.516;2023-02-01T13:15:25;7.70;99.90
60723;DHT22;46574;52.818;6.516;2023-02-01T13:17:55;7.70;99.90
60723;DHT22;46574;52.818;6.516;2023-02-01T13:20:45;7.60;99.90
60723;DHT22;46574;52.818;6.516;2023-02-01T13:23:29;7.60;99.90
60723;DHT22;46574;52.818;6.516;2023-02-01T13:25:55;7.60;99.90
60723;DHT22;46574;52.818;6.516;2023-02-01T13:28:44;7.60;99.90
60723;DHT22;46574;52.818;6.516;2023-02-01T13:45:20;7.90;99.90
60723;DHT22;46574;52.818;6.516;2023-02-01T13:47:49;7.80;99.90
60723;DHT22;46574;52.818;6.516;2023-02-01T13:50:38;7.90;99.90
60723;DHT22;46574;52.818;6.516;2023-02-01T13:55:43;7.90;99.90
60723;DHT22;46574;52.818;6.516;2023-02-01T13:58:20;7.90;99.90
60723;DHT22;46574;52.818;6.516;2023-02-01T14:00:48;7.90;99.90
60723;DHT22;46574;52.818;6.516;2023-02-01T14:03:20;7.90;99.90
60723;DHT22;46574;52.818;6.516;2023-02-01T14:08:45;7.90;99.90
60723;DHT22;46574;52.818;6.516;2023-02-01T14:11:33;8.00;99.90
60723;DHT22;46574;52.818;6.516;2023-02-01T14:19:31;8.10;99.90
60723;DHT22;46574;52.818;6.516;2023-02-01T14:21:58;8.20;99.90
60723;DHT22;46574;52.818;6.516;2023-02-01T14:24:28;8.20;99.90
60723;DHT22;46574;52.818;6.516;2023-02-01T14:26:57;8.30;99.90
60723;DHT22;46574;52.818;6.516;2023-02-01T14:29:38;8.30;99.90
60723;DHT22;46574;52.818;6.516;2023-02-01T14:32:26;8.40;99.90
60723;DHT22;46574;52.818;6.516;2023-02-01T14:34:59;8.40;99.90
60723;DHT22;46574;52.818;6.516;2023-02-01T14:37:31;8.40;99.90
60723;DHT22;46574;52.818;6.516;2023-02-01T14:40:04;8.30;99.90
60723;DHT22;46574;52.818;6.516;2023-02-01T14:42:49;8.40;99.90
60723;DHT22;46574;52.818;6.516;2023-02-01T14:55:44;8.40;99.90
60723;DHT22;46574;52.818;6.516;2023-02-01T15:01:25;8.40;99.90
60723;DHT22;46574;52.818;6.516;2023-02-01T15:04:14;8.50;99.90
60723;DHT22;46574;52.818;6.516;2023-02-01T15:06:50;8.50;99.90
60723;DHT22;46574;52.818;6.516;2023-02-01T15:09:25;8.50;99.90
60723;DHT22;46574;52.818;6.516;2023-02-01T15:14:36;8.50;99.90
60723;DHT22;46574;52.818;6.516;2023-02-01T15:17:03;8.50;99.90
60723;DHT22;46574;52.818;6.516;2023-02-01T15:19:55;8.50;99.90
60723;DHT22;46574;52.818;6.516;2023-02-01T15:22:22;8.50;99.90
60723;DHT22;46574;52.818;6.516;2023-02-01T15:24:59;8.40;99.90
60723;DHT22;46574;52.818;6.516;2023-02-01T15:27:26;8.40;99.90
60723;DHT22;46574;52.818;6.516;2023-02-01T15:29:52;8.40;99.90
60723;DHT22;46574;52.818;6.516;2023-02-01T15:32:36;8.30;99.90
60723;DHT22;46574;52.818;6.516;2023-02-01T15:35:04;8.40;99.90
60723;DHT22;46574;52.818;6.516;2023-02-01T15:37:31;8.30;99.90
60723;DHT22;46574;52.818;6.516;2023-02-01T15:40:14;8.30;99.90
60723;DHT22;46574;52.818;6.516;2023-02-01T15:42:54;8.30;99.90
60723;DHT22;46574;52.818;6.516;2023-02-01T15:45:25;8.30;99.90
60723;DHT22;46574;52.818;6.516;2023-02-01T15:47:53;8.30;99.90
60723;DHT22;46574;52.818;6.516;2023-02-01T15:50:20;8.30;99.90
60723;DHT22;46574;52.818;6.516;2023-02-01T15:52:50;8.30;99.90
60723;DHT22;46574;52.818;6.516;2023-02-01T15:55:38;8.20;99.90
60723;DHT22;46574;52.818;6.516;2023-02-01T15:58:20;8.20;99.90
60723;DHT22;46574;52.818;6.516;2023-02-01T16:00:58;8.10;99.90
60723;DHT22;46574;52.818;6.516;2023-02-01T16:05:58;8.10;99.90
60723;DHT22;46574;52.818;6.516;2023-02-01T16:08:27;8.10;99.90
60723;DHT22;46574;52.818;6.516;2023-02-01T16:13:34;8.10;99.90
60723;DHT22;46574;52.818;6.516;2023-02-01T16:15:59;8.10;99.90
60723;DHT22;46574;52.818;6.516;2023-02-01T16:18:25;8.10;99.90
60723;DHT22;46574;52.818;6.516;2023-02-01T16:20:51;8.10;99.90
60723;DHT22;46574;52.818;6.516;2023-02-01T16:23:16;8.00;99.90
60723;DHT22;46574;52.818;6.516;2023-02-01T16:25:42;8.00;99.90
60723;DHT22;46574;52.818;6.516;2023-02-01T16:28:08;7.90;99.90
60723;DHT22;46574;52.818;6.516;2023-02-01T16:30:34;7.90;99.90
60723;DHT22;46574;52.818;6.516;2023-02-01T16:33:01;7.80;99.90
60723;DHT22;46574;52.818;6.516;2023-02-01T16:35:37;7.80;99.90
60723;DHT22;46574;52.818;6.516;2023-02-01T16:38:13;7.70;99.90
60723;DHT22;46574;52.818;6.516;2023-02-01T16:40:40;7.70;99.90
60723;DHT22;46574;52.818;6.516;2023-02-01T16:43:23;7.70;99.90
60723;DHT22;46574;52.818;6.516;2023-02-01T16:45:51;7.70;99.90
60723;DHT22;46574;52.818;6.516;2023-02-01T16:48:27;7.70;99.90
60723;DHT22;46574;52.818;6.516;2023-02-01T16:51:04;7.70;99.90
60723;DHT22;46574;52.818;6.516;2023-02-01T16:53:33;7.70;99.90
60723;DHT22;46574;52.818;6.516;2023-02-01T16:55:59;7.60;99.90
60723;DHT22;46574;52.818;6.516;2023-02-01T16:58:26;7.60;99.90
60723;DHT22;46574;52.818;6.516;2023-02-01T17:00:52;7.60;99.90
60723;DHT22;46574;52.818;6.516;2023-02-01T17:03:19;7.70;99.90
60723;DHT22;46574;52.818;6.516;2023-02-01T17:05:49;7.60;99.90
60723;DHT22;46574;52.818;6.516;2023-02-01T17:08:19;7.60;99.90
60723;DHT22;46574;52.818;6.516;2023-02-01T17:10:47;7.60;99.90
60723;DHT22;46574;52.818;6.516;2023-02-01T17:13:14;7.50;99.90
60723;DHT22;46574;52.818;6.516;2023-02-01T17:15:45;7.40;99.90
60723;DHT22;46574;52.818;6.516;2023-02-01T17:18:15;7.50;99.90
60723;DHT22;46574;52.818;6.516;2023-02-01T17:20:41;7.40;99.90
60723;DHT22;46574;52.818;6.516;2023-02-01T17:23:07;7.40;99.90
60723;DHT22;46574;52.818;6.516;2023-02-01T17:25:33;7.40;99.90
60723;DHT22;46574;52.818;6.516;2023-02-01T17:27:59;7.40;99.90
60723;DHT22;46574;52.818;6.516;2023-02-01T17:30:24;7.40;99.90
60723;DHT22;46574;52.818;6.516;2023-02-01T17:32:50;7.30;99.90
60723;DHT22;46574;52.818;6.516;2023-02-01T17:35:22;7.30;99.90
60723;DHT22;46574;52.818;6.516;2023-02-01T17:37:49;7.30;99.90
60723;DHT22;46574;52.818;6.516;2023-02-01T17:40:15;7.20;99.90
60723;DHT22;46574;52.818;6.516;2023-02-01T17:42:41;7.20;99.90
60723;DHT22;46574;52.818;6.516;2023-02-01T17:45:33;7.10;99.90
60723;DHT22;46574;52.818;6.516;2023-02-01T17:48:06;7.20;99.90
60723;DHT22;46574;52.818;6.516;2023-02-01T17:50:35;7.20;99.90
60723;DHT22;46574;52.818;6.516;2023-02-01T17:53:01;7.10;99.90
60723;DHT22;46574;52.818;6.516;2023-02-01T17:55:28;7.10;99.90
60723;DHT22;46574;52.818;6.516;2023-02-01T17:57:54;7.10;99.90
60723;DHT22;46574;52.818;6.516;2023-02-01T18:00:20;7.10;99.90
60723;DHT22;46574;52.818;6.516;2023-02-01T18:02:46;7.00;99.90
60723;DHT22;46574;52.818;6.516;2023-02-01T18:05:35;7.00;99.90
60723;DHT22;46574;52.818;6.516;2023-02-01T18:08:03;7.00;99.90
60723;DHT22;46574;52.818;6.516;2023-02-01T18:10:29;7.00;99.90
60723;DHT22;46574;52.818;6.516;2023-02-01T18:12:55;6.90;99.90
60723;DHT22;46574;52.818;6.516;2023-02-01T18:15:23;6.90;99.90
60723;DHT22;46574;52.818;6.516;2023-02-01T18:17:49;6.90;99.90
60723;DHT22;46574;52.818;6.516;2023-02-01T18:20:17;6.80;99.90
60723;DHT22;46574;52.818;6.516;2023-02-01T18:22:44;6.80;99.90
60723;DHT22;46574;52.818;6.516;2023-02-01T18:25:21;6.80;99.90
60723;DHT22;46574;52.818;6.516;2023-02-01T18:27:49;6.80;99.90
60723;DHT22;46574;52.818;6.516;2023-02-01T18:30:17;6.80;99.90
60723;DHT22;46574;52.818;6.516;2023-02-01T18:32:43;6.90;99.90
60723;DHT22;46574;52.818;6.516;2023-02-01T18:35:21;6.90;99.90
60723;DHT22;46574;52.818;6.516;2023-02-01T18:37:48;6.90;99.90
60723;DHT22;46574;52.818;6.516;2023-02-01T18:40:36;6.90;99.90
60723;DHT22;46574;52.818;6.516;2023-02-01T18:43:04;6.90;99.90